Time;durP1;ratioP1;P1;durP2;ratioP2;P2;SDS_P1;SDS_P2;PMS_P1;PMS_P2;Temp;Humidity;BMP_temperature;BMP_pressure;BME280_temperature;BME280_humidity;BME280_pressure;Samples;Min_cycle;Max_cycle;Signal;HPM_P1;HPM_P2
2022/11/08 00:01:58;;;;;;;8.57;3.80;;;;;;;;;;5017776;28;20435;-77
2022/11/08 00:04:24;;;;;;;12.90;4.23;;;;;;;;;;5025064;28;21533;-76
2022/11/08 00:15:06;;;;;;;7.90;2.60;;;;;;;;;;5016686;28;20398;-76
2022/11/08 00:17:32;;;;;;;7.60;2.00;;;;;;;;;;5018600;28;20056;-76
2022/11/08 00:19:58;;;;;;;10.73;3.17;;;;;;;;;;5016001;28;20042;-76
2022/11/08 00:22:24;;;;;;;8.57;2.13;;;;;;;;;;5015817;28;20709;-77
2022/11/08 00:24:53;;;;;;;11.30;2.60;;;;;;;;;;5018164;28;20374;-76
2022/11/08 00:27:20;;;;;;;9.43;2.10;;;;;;;;;;5017771;28;20037;-76
2022/11/08 00:29:46;;;;;;;11.13;2.53;;;;;;;;;;5024795;28;20061;-77
2022/11/08 00:32:14;;;;;;;7.33;2.80;;;;;;;;;;5026446;28;20407;-77
2022/11/08 00:34:43;;;;;;;7.53;1.63;;;;;;;;;;5015457;28;20065;-77
2022/11/08 00:37:09;;;;;;;10.43;2.40;;;;;;;;;;5028460;28;20125;-76
2022/11/08 00:39:35;;;;;;;7.53;2.10;;;;;;;;;;5015372;28;20041;-77
2022/11/08 00:42:03;;;;;;;13.97;2.60;;;;;;;;;;5031322;28;20041;-77
2022/11/08 00:44:32;;;;;;;6.30;2.00;;;;;;;;;;5027683;28;20042;-77
2022/11/08 00:46:58;;;;;;;13.57;3.63;;;;;;;;;;5015350;28;20040;-76
2022/11/08 00:49:24;;;;;;;11.10;2.53;;;;;;;;;;5016322;28;20374;-76
2022/11/08 00:51:53;;;;;;;9.57;2.50;;;;;;;;;;5027994;28;21685;-77
2022/11/08 00:54:20;;;;;;;11.13;2.40;;;;;;;;;;5018041;28;20450;-76
2022/11/08 00:56:46;;;;;;;6.57;2.27;;;;;;;;;;5030376;28;20036;-77
2022/11/08 00:59:13;;;;;;;3.70;1.63;;;;;;;;;;5030227;28;20066;-76
2022/11/08 01:01:39;;;;;;;10.83;1.97;;;;;;;;;;5016405;28;20038;-77
2022/11/08 01:04:06;;;;;;;8.57;2.27;;;;;;;;;;5026408;28;20025;-77
2022/11/08 01:06:35;;;;;;;10.50;2.27;;;;;;;;;;5016696;28;20033;-77
2022/11/08 01:09:01;;;;;;;4.00;2.00;;;;;;;;;;5017053;28;20025;-76
2022/11/08 01:11:27;;;;;;;10.83;1.97;;;;;;;;;;5016841;28;20079;-77
2022/11/08 01:13:56;;;;;;;4.03;1.60;;;;;;;;;;5015490;28;20335;-75
2022/11/08 01:16:22;;;;;;;7.83;1.60;;;;;;;;;;5027730;28;20095;-78
2022/11/08 01:18:50;;;;;;;7.73;1.70;;;;;;;;;;5028659;28;20025;-77
2022/11/08 01:21:16;;;;;;;9.00;1.90;;;;;;;;;;5025835;28;20481;-77
2022/11/08 01:23:42;;;;;;;7.10;1.93;;;;;;;;;;5030126;28;20021;-77
2022/11/08 01:26:18;;;;;;;10.23;2.10;;;;;;;;;;5017276;28;20061;-75
2022/11/08 01:28:45;;;;;;;4.73;1.77;;;;;;;;;;5029649;28;20168;-76
2022/11/08 01:31:12;;;;;;;5.00;1.37;;;;;;;;;;5020485;28;20034;-76
2022/11/08 01:33:39;;;;;;;5.93;1.87;;;;;;;;;;5029016;28;20038;-76
2022/11/08 01:36:08;;;;;;;6.10;2.07;;;;;;;;;;5017255;28;20038;-77
2022/11/08 01:38:36;;;;;;;6.27;1.63;;;;;;;;;;5027664;28;20034;-77
2022/11/08 01:41:05;;;;;;;7.07;1.33;;;;;;;;;;5014976;28;20115;-77
2022/11/08 01:43:31;;;;;;;9.17;1.67;;;;;;;;;;5028991;28;20033;-77
2022/11/08 01:46:11;;;;;;;3.93;1.40;;;;;;;;;;5017070;28;20442;-76
2022/11/08 01:48:40;;;;;;;7.53;2.30;;;;;;;;;;5028238;28;20038;-77
2022/11/08 01:51:08;;;;;;;7.73;1.93;;;;;;;;;;5013438;28;20068;-75
2022/11/08 01:53:35;;;;;;;7.00;1.50;;;;;;;;;;5015716;28;20085;-77
2022/11/08 01:56:02;;;;;;;7.87;1.73;;;;;;;;;;5027967;28;20040;-76
2022/11/08 01:58:30;;;;;;;6.20;1.60;;;;;;;;;;5013960;28;20044;-76
2022/11/08 02:00:57;;;;;;;7.40;2.03;;;;;;;;;;5017398;28;20611;-76
2022/11/08 02:03:23;;;;;;;6.00;1.80;;;;;;;;;;5016528;28;20026;-77
2022/11/08 02:05:49;;;;;;;5.23;1.47;;;;;;;;;;5023527;28;20030;-75
2022/11/08 02:08:27;;;;;;;5.17;1.33;;;;;;;;;;5016654;28;20045;-77
2022/11/08 02:10:53;;;;;;;6.23;1.40;;;;;;;;;;5024768;28;20525;-77
2022/11/08 02:13:22;;;;;;;5.40;1.80;;;;;;;;;;5015568;28;20352;-77
2022/11/08 02:15:48;;;;;;;6.83;2.20;;;;;;;;;;5017466;28;21731;-77
2022/11/08 02:18:16;;;;;;;7.40;1.93;;;;;;;;;;5017150;28;20054;-76
2022/11/08 02:21:03;;;;;;;9.53;2.20;;;;;;;;;;5015140;28;20033;-76
2022/11/08 02:23:34;;;;;;;7.73;2.07;;;;;;;;;;5026718;28;20037;-77
2022/11/08 02:26:01;;;;;;;4.17;2.30;;;;;;;;;;5000280;28;20037;-75
2022/11/08 02:28:27;;;;;;;4.37;2.30;;;;;;;;;;5031091;28;20025;-76
2022/11/08 02:30:53;;;;;;;7.47;2.70;;;;;;;;;;5014822;28;20029;-76
2022/11/08 02:33:20;;;;;;;8.53;2.47;;;;;;;;;;5016411;28;20466;-76
2022/11/08 02:35:55;;;;;;;13.63;3.80;;;;;;;;;;5026534;28;20054;-77
2022/11/08 02:38:24;;;;;;;10.73;2.90;;;;;;;;;;5026500;28;20128;-76
2022/11/08 02:40:51;;;;;;;11.30;2.70;;;;;;;;;;5022953;28;20029;-75
2022/11/08 02:43:17;;;;;;;10.63;3.63;;;;;;;;;;5015212;28;20038;-76
2022/11/08 02:45:46;;;;;;;10.10;3.60;;;;;;;;;;5019504;28;20034;-77
2022/11/08 02:48:12;;;;;;;6.90;3.33;;;;;;;;;;5022649;28;20034;-77
2022/11/08 02:50:38;;;;;;;12.17;4.17;;;;;;;;;;5021416;28;20037;-76
2022/11/08 02:53:04;;;;;;;7.97;3.10;;;;;;;;;;5032141;28;20049;-76
2022/11/08 02:55:33;;;;;;;5.80;2.83;;;;;;;;;;5034773;28;20064;-77
2022/11/08 02:58:00;;;;;;;12.27;3.40;;;;;;;;;;5029061;28;20061;-76
2022/11/08 03:00:28;;;;;;;11.37;3.80;;;;;;;;;;5019824;28;20044;-76
2022/11/08 03:02:57;;;;;;;14.80;3.97;;;;;;;;;;5019181;28;20380;-76
2022/11/08 03:05:25;;;;;;;7.73;3.97;;;;;;;;;;5020530;28;20038;-76
2022/11/08 03:07:51;;;;;;;14.57;3.80;;;;;;;;;;5027976;28;20063;-76
2022/11/08 03:10:17;;;;;;;10.03;3.60;;;;;;;;;;5022133;28;20029;-76
2022/11/08 03:12:46;;;;;;;11.57;4.30;;;;;;;;;;5025506;28;20045;-76
2022/11/08 03:15:13;;;;;;;18.43;4.83;;;;;;;;;;5030926;28;20064;-76
2022/11/08 03:17:39;;;;;;;13.47;3.83;;;;;;;;;;5035337;28;20029;-77
2022/11/08 03:20:07;;;;;;;14.37;3.43;;;;;;;;;;5027910;28;20042;-76
2022/11/08 03:22:33;;;;;;;9.20;3.77;;;;;;;;;;5029540;28;20045;-77
2022/11/08 03:24:59;;;;;;;5.60;3.17;;;;;;;;;;5016526;28;20029;-77
2022/11/08 03:27:25;;;;;;;14.83;3.53;;;;;;;;;;5019706;28;20038;-77
2022/11/08 03:29:51;;;;;;;14.67;3.40;;;;;;;;;;5018883;28;20033;-76
2022/11/08 03:32:17;;;;;;;10.07;3.63;;;;;;;;;;5018540;28;20033;-76
2022/11/08 03:34:43;;;;;;;6.03;2.93;;;;;;;;;;5016951;28;20064;-75
2022/11/08 03:37:09;;;;;;;9.60;3.17;;;;;;;;;;5034376;28;20069;-77
2022/11/08 03:39:37;;;;;;;7.47;3.17;;;;;;;;;;5017288;28;20045;-77
2022/11/08 03:42:03;;;;;;;10.13;4.27;;;;;;;;;;5019556;28;20042;-77
2022/11/08 03:44:30;;;;;;;12.20;3.57;;;;;;;;;;5023435;28;20486;-76
2022/11/08 03:46:56;;;;;;;10.80;3.27;;;;;;;;;;5017668;28;20040;-77
2022/11/08 03:49:22;;;;;;;7.37;4.13;;;;;;;;;;5018050;28;20064;-77
2022/11/08 03:51:48;;;;;;;10.97;4.23;;;;;;;;;;5019759;28;20044;-76
2022/11/08 03:54:14;;;;;;;12.30;3.53;;;;;;;;;;5031621;28;20038;-76
2022/11/08 03:56:40;;;;;;;8.70;3.73;;;;;;;;;;5018068;28;20100;-76
2022/11/08 03:59:06;;;;;;;16.90;4.30;;;;;;;;;;5030669;28;20089;-77
2022/11/08 04:01:32;;;;;;;6.00;2.70;;;;;;;;;;5032794;28;20446;-75
2022/11/08 04:03:59;;;;;;;7.20;3.40;;;;;;;;;;5017133;28;20984;-76
2022/11/08 04:06:25;;;;;;;8.10;3.77;;;;;;;;;;5017224;28;20096;-77
2022/11/08 04:08:51;;;;;;;8.20;3.63;;;;;;;;;;5017359;28;20025;-76
2022/11/08 04:16:49;;;;;;;11.30;4.20;;;;;;;;;;5019237;28;20099;-76
2022/11/08 04:21:59;;;;;;;8.63;4.10;;;;;;;;;;5018834;28;20104;-76
2022/11/08 04:24:25;;;;;;;9.60;3.97;;;;;;;;;;5016510;28;20137;-77
2022/11/08 04:26:51;;;;;;;17.47;5.10;;;;;;;;;;5018717;28;20137;-77
2022/11/08 04:29:17;;;;;;;11.63;3.80;;;;;;;;;;5020305;28;20061;-75
2022/11/08 04:31:43;;;;;;;10.53;3.93;;;;;;;;;;5029244;28;20033;-77
2022/11/08 04:34:09;;;;;;;9.60;4.23;;;;;;;;;;5016717;28;20033;-76
2022/11/08 04:36:36;;;;;;;9.13;3.77;;;;;;;;;;5017855;28;20044;-77
2022/11/08 04:39:02;;;;;;;7.47;3.83;;;;;;;;;;5015534;28;20041;-77
2022/11/08 04:41:28;;;;;;;13.00;4.00;;;;;;;;;;5019110;28;20053;-77
2022/11/08 04:43:55;;;;;;;9.23;4.07;;;;;;;;;;5030627;28;20033;-76
2022/11/08 04:46:22;;;;;;;9.90;4.23;;;;;;;;;;5028180;28;20029;-76
2022/11/08 04:48:50;;;;;;;16.00;4.90;;;;;;;;;;5034296;28;20785;-77
2022/11/08 04:51:17;;;;;;;10.97;4.80;;;;;;;;;;5027838;28;20053;-75
2022/11/08 04:53:44;;;;;;;12.73;4.57;;;;;;;;;;5017205;28;20943;-76
2022/11/08 04:56:14;;;;;;;7.70;4.00;;;;;;;;;;5028745;28;20160;-77
2022/11/08 04:58:41;;;;;;;10.73;5.13;;;;;;;;;;5028872;28;20034;-76
2022/11/08 05:01:11;;;;;;;14.13;5.30;;;;;;;;;;5017349;28;20046;-76
2022/11/08 05:03:37;;;;;;;12.43;4.07;;;;;;;;;;5029426;28;20048;-75
2022/11/08 05:06:07;;;;;;;14.20;5.10;;;;;;;;;;5028686;28;20029;-76
2022/11/08 05:08:33;;;;;;;17.53;4.77;;;;;;;;;;5016888;28;20052;-77
2022/11/08 05:11:06;;;;;;;9.23;4.50;;;;;;;;;;5025797;28;20064;-76
2022/11/08 05:13:33;;;;;;;7.27;4.10;;;;;;;;;;5020300;28;20091;-76
2022/11/08 05:16:03;;;;;;;7.53;3.53;;;;;;;;;;5026056;28;20041;-75
2022/11/08 05:18:29;;;;;;;9.17;3.33;;;;;;;;;;5018415;28;20042;-75
2022/11/08 05:23:44;;;;;;;11.27;3.50;;;;;;;;;;5018677;28;20120;-77
2022/11/08 05:26:10;;;;;;;11.70;3.80;;;;;;;;;;5028479;28;20044;-76
2022/11/08 05:28:36;;;;;;;9.90;3.90;;;;;;;;;;5029800;28;20459;-76
2022/11/08 05:31:02;;;;;;;11.97;3.83;;;;;;;;;;5015548;28;20037;-76
2022/11/08 05:33:28;;;;;;;9.80;4.03;;;;;;;;;;5024425;28;20187;-76
2022/11/08 05:35:54;;;;;;;10.57;3.80;;;;;;;;;;5017385;28;20438;-76
2022/11/08 05:38:20;;;;;;;7.00;3.57;;;;;;;;;;5025718;28;20612;-76
2022/11/08 05:40:49;;;;;;;8.07;3.53;;;;;;;;;;5017015;28;20049;-77
2022/11/08 05:43:15;;;;;;;8.73;3.80;;;;;;;;;;5032807;28;20033;-77
2022/11/08 05:45:41;;;;;;;8.20;3.50;;;;;;;;;;5015602;28;20084;-76
2022/11/08 05:48:07;;;;;;;12.70;4.03;;;;;;;;;;5018467;28;20026;-75
2022/11/08 05:50:34;;;;;;;11.37;3.33;;;;;;;;;;5018604;28;20049;-77
2022/11/08 05:53:00;;;;;;;11.03;3.90;;;;;;;;;;5013943;28;20136;-77
2022/11/08 05:55:26;;;;;;;10.53;3.87;;;;;;;;;;5015012;28;20084;-77
2022/11/08 05:57:52;;;;;;;8.43;3.60;;;;;;;;;;5026721;28;20041;-76
2022/11/08 06:00:21;;;;;;;9.33;3.87;;;;;;;;;;5014665;28;20229;-76
2022/11/08 06:02:47;;;;;;;7.80;3.03;;;;;;;;;;5028347;28;20576;-77
2022/11/08 06:05:13;;;;;;;9.63;3.70;;;;;;;;;;5014201;28;20033;-76
2022/11/08 06:07:39;;;;;;;13.87;3.77;;;;;;;;;;5016907;28;20042;-77
2022/11/08 06:10:06;;;;;;;10.83;3.87;;;;;;;;;;5032186;28;20574;-77
2022/11/08 06:12:32;;;;;;;4.97;3.13;;;;;;;;;;5014094;28;20037;-76
2022/11/08 06:14:58;;;;;;;9.17;3.30;;;;;;;;;;5027504;28;20063;-77
2022/11/08 06:17:24;;;;;;;9.70;3.50;;;;;;;;;;5016967;28;20109;-76
2022/11/08 06:19:52;;;;;;;10.53;3.93;;;;;;;;;;5022896;28;20132;-76
2022/11/08 06:22:18;;;;;;;9.07;3.17;;;;;;;;;;5013690;28;20044;-77
2022/11/08 06:24:44;;;;;;;10.87;3.87;;;;;;;;;;5015221;28;20550;-75
2022/11/08 06:27:13;;;;;;;11.23;4.07;;;;;;;;;;5031034;28;20021;-77
2022/11/08 06:29:41;;;;;;;12.10;3.57;;;;;;;;;;5013419;28;20029;-75
2022/11/08 06:32:07;;;;;;;8.60;3.37;;;;;;;;;;5014873;28;20044;-76
2022/11/08 06:34:33;;;;;;;6.93;3.70;;;;;;;;;;5016802;28;20117;-76
2022/11/08 06:36:59;;;;;;;11.67;3.50;;;;;;;;;;5014714;28;20936;-76
2022/11/08 06:39:25;;;;;;;10.43;3.70;;;;;;;;;;5027873;28;20029;-77
2022/11/08 06:41:51;;;;;;;9.13;3.33;;;;;;;;;;5017325;28;20854;-75
2022/11/08 06:44:17;;;;;;;16.23;3.70;;;;;;;;;;5014033;28;20040;-75
2022/11/08 06:46:43;;;;;;;10.13;3.37;;;;;;;;;;5023688;28;20036;-76
2022/11/08 06:49:09;;;;;;;7.57;3.23;;;;;;;;;;5027166;28;20030;-76
2022/11/08 06:51:35;;;;;;;10.87;3.30;;;;;;;;;;5013089;28;20188;-76
2022/11/08 06:54:02;;;;;;;10.07;2.70;;;;;;;;;;5023422;28;20061;-76
2022/11/08 06:56:28;;;;;;;8.97;2.57;;;;;;;;;;5012694;28;20109;-77
2022/11/08 06:58:55;;;;;;;5.50;3.00;;;;;;;;;;5016013;28;20037;-76
2022/11/08 07:01:21;;;;;;;10.87;2.90;;;;;;;;;;5017266;28;20069;-77
2022/11/08 07:03:49;;;;;;;9.20;2.63;;;;;;;;;;5021482;28;20127;-77
2022/11/08 07:06:15;;;;;;;10.83;3.23;;;;;;;;;;5025126;28;20029;-78
2022/11/08 07:08:41;;;;;;;6.87;2.07;;;;;;;;;;5025116;28;20025;-77
2022/11/08 07:11:07;;;;;;;6.50;3.10;;;;;;;;;;5023338;28;20108;-77
2022/11/08 07:13:34;;;;;;;12.13;3.20;;;;;;;;;;5013061;28;20064;-77
2022/11/08 07:16:00;;;;;;;6.50;2.83;;;;;;;;;;5015458;28;20234;-78
2022/11/08 07:18:26;;;;;;;7.43;2.40;;;;;;;;;;5014466;28;20034;-77
2022/11/08 07:20:52;;;;;;;6.83;2.27;;;;;;;;;;5015015;28;20060;-76
2022/11/08 07:23:18;;;;;;;7.53;2.63;;;;;;;;;;5017261;28;20026;-77
2022/11/08 07:25:44;;;;;;;5.50;2.73;;;;;;;;;;5025346;28;20030;-77
2022/11/08 07:28:14;;;;;;;9.10;2.80;;;;;;;;;;5014794;28;20041;-77
2022/11/08 07:30:40;;;;;;;9.30;2.40;;;;;;;;;;5017955;28;20034;-77
2022/11/08 07:33:06;;;;;;;6.47;2.47;;;;;;;;;;5030436;28;20048;-76
2022/11/08 07:35:32;;;;;;;7.37;2.50;;;;;;;;;;5019339;28;20048;-77
2022/11/08 07:38:00;;;;;;;6.23;2.33;;;;;;;;;;5027870;28;20030;-77
2022/11/08 07:40:26;;;;;;;5.87;2.47;;;;;;;;;;5016170;28;20863;-77
2022/11/08 07:42:52;;;;;;;3.97;2.20;;;;;;;;;;5028668;28;20564;-76
2022/11/08 07:45:18;;;;;;;5.60;2.40;;;;;;;;;;5018230;28;20034;-76
2022/11/08 07:47:44;;;;;;;6.03;2.47;;;;;;;;;;5031095;28;20037;-77
2022/11/08 07:50:11;;;;;;;6.87;2.27;;;;;;;;;;5031165;28;20037;-76
2022/11/08 07:52:37;;;;;;;8.30;2.53;;;;;;;;;;5024801;28;20497;-75
2022/11/08 07:55:03;;;;;;;5.33;2.23;;;;;;;;;;5031397;28;20034;-78
2022/11/08 07:57:29;;;;;;;7.07;1.87;;;;;;;;;;5018122;28;20041;-76
2022/11/08 07:59:55;;;;;;;4.83;1.90;;;;;;;;;;5017402;28;20035;-77
2022/11/08 08:02:22;;;;;;;6.47;1.87;;;;;;;;;;5030234;28;20030;-75
2022/11/08 08:04:48;;;;;;;6.17;2.40;;;;;;;;;;5019379;28;20030;-76
2022/11/08 08:07:14;;;;;;;8.17;2.50;;;;;;;;;;5019094;28;20029;-76
2022/11/08 08:09:40;;;;;;;7.93;1.90;;;;;;;;;;5030994;28;20129;-74
2022/11/08 08:12:09;;;;;;;6.80;1.90;;;;;;;;;;5030912;28;20117;-77
2022/11/08 08:14:35;;;;;;;6.33;1.83;;;;;;;;;;5017001;28;20022;-76
2022/11/08 08:17:03;;;;;;;4.57;1.60;;;;;;;;;;5032196;28;20033;-76
2022/11/08 08:19:29;;;;;;;5.37;2.00;;;;;;;;;;5031143;28;20029;-76
2022/11/08 08:21:55;;;;;;;5.33;2.00;;;;;;;;;;5014942;28;20111;-76
2022/11/08 08:24:21;;;;;;;3.13;1.40;;;;;;;;;;5017930;28;20095;-75
2022/11/08 08:26:49;;;;;;;4.43;1.50;;;;;;;;;;5018729;28;20041;-76
2022/11/08 08:29:15;;;;;;;6.13;1.57;;;;;;;;;;5027907;28;20025;-76
2022/11/08 08:31:41;;;;;;;9.83;2.00;;;;;;;;;;5027506;28;20034;-76
2022/11/08 08:34:07;;;;;;;5.67;1.97;;;;;;;;;;5020003;28;20129;-76
2022/11/08 08:36:35;;;;;;;4.20;1.50;;;;;;;;;;5031194;28;20048;-76
2022/11/08 08:39:01;;;;;;;5.23;1.50;;;;;;;;;;5019979;28;21696;-76
2022/11/08 08:41:28;;;;;;;9.33;3.33;;;;;;;;;;5016881;28;20465;-76
2022/11/08 08:43:54;;;;;;;4.93;1.60;;;;;;;;;;5018818;28;20044;-76
2022/11/08 08:46:20;;;;;;;6.17;1.53;;;;;;;;;;5030073;28;20125;-76
2022/11/08 08:48:46;;;;;;;6.00;1.67;;;;;;;;;;5023060;28;20018;-75
2022/11/08 08:51:12;;;;;;;4.63;2.20;;;;;;;;;;5026856;28;20044;-74
2022/11/08 08:53:38;;;;;;;4.50;2.50;;;;;;;;;;5018811;28;20386;-77
2022/11/08 08:56:05;;;;;;;8.27;1.87;;;;;;;;;;5029184;28;20037;-76
2022/11/08 08:58:31;;;;;;;7.17;1.60;;;;;;;;;;5028471;28;20033;-76
2022/11/08 09:01:01;;;;;;;5.00;2.20;;;;;;;;;;5019438;28;20068;-75
2022/11/08 09:03:29;;;;;;;12.73;2.03;;;;;;;;;;5022337;28;20038;-77
2022/11/08 09:05:59;;;;;;;5.53;1.93;;;;;;;;;;5029843;28;20793;-76
2022/11/08 09:08:25;;;;;;;5.30;1.63;;;;;;;;;;5031589;28;20033;-77
2022/11/08 09:10:55;;;;;;;2.73;1.60;;;;;;;;;;5030053;28;20038;-76
2022/11/08 09:13:22;;;;;;;6.07;1.73;;;;;;;;;;5031478;28;20041;-77
2022/11/08 09:15:48;;;;;;;5.47;1.73;;;;;;;;;;5031516;28;20030;-76
2022/11/08 09:18:19;;;;;;;5.43;1.53;;;;;;;;;;5029518;28;20029;-76
2022/11/08 09:20:46;;;;;;;6.10;2.17;;;;;;;;;;5019628;28;20172;-77
2022/11/08 09:23:12;;;;;;;6.93;2.10;;;;;;;;;;5030656;28;20029;-77
2022/11/08 09:25:41;;;;;;;6.20;1.67;;;;;;;;;;5030191;28;20021;-75
2022/11/08 09:28:08;;;;;;;6.37;2.00;;;;;;;;;;5016616;28;20026;-77
2022/11/08 09:30:34;;;;;;;6.63;1.90;;;;;;;;;;5035814;28;20162;-77
2022/11/08 09:33:01;;;;;;;6.93;1.73;;;;;;;;;;5031847;28;20041;-76
2022/11/08 09:35:29;;;;;;;6.53;1.60;;;;;;;;;;5027797;28;20030;-77
2022/11/08 09:37:58;;;;;;;9.33;1.90;;;;;;;;;;5016757;28;20030;-77
2022/11/08 09:40:31;;;;;;;3.10;1.80;;;;;;;;;;5029994;28;20030;-76
2022/11/08 09:43:06;;;;;;;3.27;1.53;;;;;;;;;;5028309;28;20036;-77
2022/11/08 09:45:44;;;;;;;40.67;6.17;;;;;;;;;;5032304;28;20897;-76
2022/11/08 09:48:16;;;;;;;12.53;3.23;;;;;;;;;;5031495;28;20033;-76
2022/11/08 09:50:43;;;;;;;4.53;1.83;;;;;;;;;;5016294;28;20033;-77
2022/11/08 09:53:23;;;;;;;4.63;2.03;;;;;;;;;;5018936;28;20166;-77
2022/11/08 09:56:02;;;;;;;6.23;2.07;;;;;;;;;;5028644;28;20026;-76
2022/11/08 09:58:31;;;;;;;6.83;2.57;;;;;;;;;;5029052;28;20032;-76
2022/11/08 10:00:58;;;;;;;4.73;1.90;;;;;;;;;;5018313;28;20036;-76
2022/11/08 10:03:25;;;;;;;3.47;1.60;;;;;;;;;;5028926;28;20034;-77
2022/11/08 10:05:57;;;;;;;6.43;1.80;;;;;;;;;;5018771;28;20029;-77
2022/11/08 10:08:29;;;;;;;4.32;1.83;;;;;;;;;;5028377;28;20112;-77
2022/11/08 10:11:07;;;;;;;5.68;1.52;;;;;;;;;;5016116;28;20025;-76
2022/11/08 10:13:51;;;;;;;7.83;2.43;;;;;;;;;;5029268;28;20817;-77
2022/11/08 10:16:36;;;;;;;5.30;2.47;;;;;;;;;;5026125;28;20398;-78
2022/11/08 10:19:08;;;;;;;6.43;2.72;;;;;;;;;;5029976;28;20071;-77
2022/11/08 10:21:40;;;;;;;11.82;2.38;;;;;;;;;;5028300;28;20128;-77
2022/11/08 10:24:12;;;;;;;7.47;2.42;;;;;;;;;;5026091;28;20087;-76
2022/11/08 10:26:44;;;;;;;4.57;1.58;;;;;;;;;;5033810;28;20029;-77
2022/11/08 10:29:21;;;;;;;6.32;2.53;;;;;;;;;;5017607;28;20025;-77
2022/11/08 10:31:47;;;;;;;6.03;2.17;;;;;;;;;;5028195;28;20037;-77
2022/11/08 10:34:19;;;;;;;5.82;2.45;;;;;;;;;;5025377;28;20029;-77
2022/11/08 10:36:47;;;;;;;6.10;2.10;;;;;;;;;;5027995;28;20040;-76
2022/11/08 10:39:26;;;;;;;5.90;1.83;;;;;;;;;;5015880;28;20533;-78
2022/11/08 10:42:04;;;;;;;8.40;2.00;;;;;;;;;;5024316;28;20521;-77
2022/11/08 10:44:31;;;;;;;6.35;1.90;;;;;;;;;;5030531;28;20145;-76
2022/11/08 10:46:58;;;;;;;5.32;1.98;;;;;;;;;;5015542;28;20014;-76
2022/11/08 10:49:38;;;;;;;5.13;1.80;;;;;;;;;;5017176;28;20108;-76
2022/11/08 10:52:23;;;;;;;5.40;2.08;;;;;;;;;;5029581;28;20025;-77
2022/11/08 10:54:57;;;;;;;8.65;2.22;;;;;;;;;;5015579;28;20111;-76
2022/11/08 10:57:29;;;;;;;3.03;1.30;;;;;;;;;;5026251;28;20462;-77
2022/11/08 10:59:55;;;;;;;6.80;1.70;;;;;;;;;;5027001;28;20021;-77
2022/11/08 11:02:24;;;;;;;6.38;2.75;;;;;;;;;;5016173;28;20044;-77
2022/11/08 11:04:51;;;;;;;4.53;1.95;;;;;;;;;;5031789;28;20033;-77
2022/11/08 11:07:26;;;;;;;9.50;1.85;;;;;;;;;;5018893;28;20033;-77
2022/11/08 11:09:52;;;;;;;7.57;2.55;;;;;;;;;;5026300;28;20022;-77
2022/11/08 11:12:18;;;;;;;19.02;3.35;;;;;;;;;;5020566;28;20033;-78
2022/11/08 11:14:44;;;;;;;3.95;1.50;;;;;;;;;;5030136;28;20026;-77
2022/11/08 11:17:17;;;;;;;3.85;2.00;;;;;;;;;;5031173;28;20103;-77
2022/11/08 11:19:44;;;;;;;5.70;2.03;;;;;;;;;;5019303;28;20036;-77
2022/11/08 11:22:11;;;;;;;9.13;1.77;;;;;;;;;;5027274;28;20481;-77
2022/11/08 11:24:46;;;;;;;6.43;1.40;;;;;;;;;;5020897;28;20104;-77
2022/11/08 11:27:38;;;;;;;4.32;1.98;;;;;;;;;;5028281;28;20044;-75
2022/11/08 11:30:11;;;;;;;3.55;1.27;;;;;;;;;;5022423;28;20076;-76
2022/11/08 11:32:38;;;;;;;5.25;1.50;;;;;;;;;;5030469;28;20045;-77
2022/11/08 11:35:06;;;;;;;8.07;1.50;;;;;;;;;;5018620;28;20666;-76
2022/11/08 11:37:45;;;;;;;3.30;1.58;;;;;;;;;;5020306;28;20056;-76
2022/11/08 11:40:19;;;;;;;4.72;1.65;;;;;;;;;;5019862;28;20026;-77
2022/11/08 11:43:04;;;;;;;5.40;1.70;;;;;;;;;;5033762;28;20029;-77
2022/11/08 11:45:35;;;;;;;5.25;1.52;;;;;;;;;;5009977;28;20029;-77
2022/11/08 11:48:03;;;;;;;4.43;1.70;;;;;;;;;;5032140;28;20120;-78
2022/11/08 11:50:34;;;;;;;4.68;2.15;;;;;;;;;;5018784;28;20056;-78
2022/11/08 11:53:03;;;;;;;4.40;1.63;;;;;;;;;;5018446;28;20072;-76
2022/11/08 11:55:37;;;;;;;4.30;2.10;;;;;;;;;;5017989;28;20080;-77
2022/11/08 11:58:12;;;;;;;4.55;1.80;;;;;;;;;;5016512;28;20037;-78
2022/11/08 12:00:44;;;;;;;4.57;2.00;;;;;;;;;;5019301;28;20049;-76
2022/11/08 12:03:29;;;;;;;4.63;1.90;;;;;;;;;;5016681;28;20045;-77
2022/11/08 12:06:11;;;;;;;4.63;1.90;;;;;;;;;;5028617;28;20026;-78
2022/11/08 12:08:50;;;;;;;6.63;1.70;;;;;;;;;;5018469;28;20095;-77
2022/11/08 12:11:36;;;;;;;6.93;2.65;;;;;;;;;;5017574;28;20072;-77
2022/11/08 12:14:02;;;;;;;5.40;1.65;;;;;;;;;;5032481;28;20045;-77
2022/11/08 12:16:33;;;;;;;4.88;1.60;;;;;;;;;;5025715;28;20022;-77
2022/11/08 12:19:08;;;;;;;6.30;2.22;;;;;;;;;;5031167;28;20036;-77
2022/11/08 12:21:34;;;;;;;4.70;1.50;;;;;;;;;;5018514;28;20046;-77
2022/11/08 12:24:00;;;;;;;4.65;1.80;;;;;;;;;;5028416;28;20453;-76
2022/11/08 12:26:26;;;;;;;8.57;2.08;;;;;;;;;;5016183;28;20041;-77
2022/11/08 12:28:55;;;;;;;8.48;1.50;;;;;;;;;;5026122;28;20091;-76
2022/11/08 12:31:46;;;;;;;5.55;2.03;;;;;;;;;;5031763;28;20049;-77
2022/11/08 12:34:30;;;;;;;5.53;1.90;;;;;;;;;;5016697;28;20029;-78
2022/11/08 12:37:04;;;;;;;4.07;1.80;;;;;;;;;;5029648;28;20048;-77
2022/11/08 12:39:30;;;;;;;3.65;1.85;;;;;;;;;;5015514;28;20036;-78
2022/11/08 12:42:22;;;;;;;8.02;2.00;;;;;;;;;;5018666;28;20030;-76
2022/11/08 12:44:57;;;;;;;3.83;1.60;;;;;;;;;;5020820;28;20041;-77
2022/11/08 12:47:23;;;;;;;10.75;1.77;;;;;;;;;;5019237;28;20031;-76
2022/11/08 12:50:18;;;;;;;4.10;1.55;;;;;;;;;;5017359;28;20459;-77
2022/11/08 12:52:59;;;;;;;4.53;1.80;;;;;;;;;;5018838;28;20048;-76
2022/11/08 12:55:28;;;;;;;13.07;2.25;;;;;;;;;;5017024;28;20037;-78
2022/11/08 12:57:55;;;;;;;6.03;2.30;;;;;;;;;;5019172;28;20037;-77
2022/11/08 13:00:21;;;;;;;8.82;2.55;;;;;;;;;;5020187;28;20458;-77
2022/11/08 13:02:56;;;;;;;10.52;4.25;;;;;;;;;;5016046;28;20034;-76
2022/11/08 13:05:24;;;;;;;6.38;2.10;;;;;;;;;;5031538;28;20085;-77
2022/11/08 13:07:56;;;;;;;5.30;1.77;;;;;;;;;;5025901;28;20045;-77
2022/11/08 13:10:22;;;;;;;9.65;2.53;;;;;;;;;;5026006;28;20141;-77
2022/11/08 13:12:48;;;;;;;6.45;2.30;;;;;;;;;;5017593;28;20665;-77
2022/11/08 13:15:19;;;;;;;6.20;2.42;;;;;;;;;;5018685;28;20053;-77
2022/11/08 13:18:04;;;;;;;4.40;1.77;;;;;;;;;;5027399;28;20049;-77
2022/11/08 13:20:41;;;;;;;6.72;2.92;;;;;;;;;;5028315;28;20299;-76
2022/11/08 13:23:11;;;;;;;5.63;2.70;;;;;;;;;;5016690;28;20025;-77
2022/11/08 13:25:38;;;;;;;3.90;2.10;;;;;;;;;;5015776;28;20029;-78
2022/11/08 13:28:23;;;;;;;7.65;2.67;;;;;;;;;;5015618;28;20032;-78
2022/11/08 13:30:57;;;;;;;5.97;2.90;;;;;;;;;;5031558;28;20061;-76
2022/11/08 13:33:27;;;;;;;7.90;2.90;;;;;;;;;;5029510;28;20084;-77
2022/11/08 13:36:09;;;;;;;4.30;1.85;;;;;;;;;;5015166;28;20362;-75
2022/11/08 13:38:44;;;;;;;3.83;1.92;;;;;;;;;;5032591;28;20033;-78
2022/11/08 13:41:25;;;;;;;4.47;2.25;;;;;;;;;;5025764;28;20037;-77
2022/11/08 13:43:53;;;;;;;6.95;2.47;;;;;;;;;;5015237;28;20054;-76
2022/11/08 13:46:24;;;;;;;5.85;1.92;;;;;;;;;;5017577;28;20029;-77
2022/11/08 13:49:04;;;;;;;4.88;1.77;;;;;;;;;;5016479;28;20042;-77
2022/11/08 13:51:32;;;;;;;3.65;1.48;;;;;;;;;;5025442;28;20061;-76
2022/11/08 13:54:03;;;;;;;4.13;2.05;;;;;;;;;;5029361;28;20052;-76
2022/11/08 13:56:46;;;;;;;4.97;1.33;;;;;;;;;;5015076;28;20022;-78
2022/11/08 13:59:12;;;;;;;;;;;;;;;;;;5026186;28;20973;-76
2022/11/08 14:01:47;;;;;;;6.13;2.15;;;;;;;;;;5025401;28;19917;-78
2022/11/08 14:04:23;;;;;;;5.68;1.63;;;;;;;;;;5014765;28;20026;-76
2022/11/08 14:06:56;;;;;;;6.57;1.70;;;;;;;;;;5025942;28;20033;-76
2022/11/08 14:09:22;;;;;;;4.72;1.80;;;;;;;;;;5014061;28;20025;-76
2022/11/08 14:11:57;;;;;;;6.28;1.77;;;;;;;;;;5018011;28;20026;-77
2022/11/08 14:14:23;;;;;;;6.57;1.45;;;;;;;;;;5025556;28;20030;-76
2022/11/08 14:16:49;;;;;;;6.07;1.50;;;;;;;;;;5018668;28;20795;-77
2022/11/08 14:19:21;;;;;;;4.78;1.80;;;;;;;;;;5015881;28;20026;-76
2022/11/08 14:21:52;;;;;;;7.28;1.35;;;;;;;;;;5028470;28;20052;-77
2022/11/08 14:24:20;;;;;;;7.57;1.52;;;;;;;;;;5015550;28;20025;-77
2022/11/08 14:26:46;;;;;;;6.88;1.77;;;;;;;;;;5014057;28;20034;-77
2022/11/08 14:29:17;;;;;;;4.38;1.75;;;;;;;;;;5018876;28;20033;-77
2022/11/08 14:31:44;;;;;;;2.42;1.23;;;;;;;;;;5018709;28;20105;-75
2022/11/08 14:34:26;;;;;;;6.13;1.38;;;;;;;;;;5027396;28;20048;-76
2022/11/08 14:36:56;;;;;;;3.55;1.27;;;;;;;;;;5026616;28;20030;-76
2022/11/08 14:39:25;;;;;;;6.07;1.40;;;;;;;;;;5026226;28;20609;-77
2022/11/08 14:41:52;;;;;;;3.67;1.20;;;;;;;;;;5032508;28;20041;-76
2022/11/08 14:44:18;;;;;;;4.40;1.17;;;;;;;;;;5020082;28;20168;-75
2022/11/08 14:46:45;;;;;;;4.65;1.50;;;;;;;;;;5019298;28;20065;-77
2022/11/08 14:49:16;;;;;;;5.75;1.65;;;;;;;;;;5019450;28;20045;-77
2022/11/08 14:51:46;;;;;;;5.00;1.10;;;;;;;;;;5031808;28;20029;-75
2022/11/08 14:54:19;;;;;;;4.57;1.55;;;;;;;;;;5020530;28;20029;-77
2022/11/08 14:56:46;;;;;;;6.15;1.17;;;;;;;;;;5031039;28;20029;-77
2022/11/08 14:59:12;;;;;;;3.88;1.30;;;;;;;;;;5032127;28;20029;-77
2022/11/08 15:01:39;;;;;;;4.38;1.05;;;;;;;;;;5016223;28;20575;-77
2022/11/08 15:04:12;;;;;;;4.90;1.85;;;;;;;;;;5033345;28;20454;-77
2022/11/08 15:06:42;;;;;;;3.47;1.10;;;;;;;;;;5037867;28;20030;-76
2022/11/08 15:09:16;;;;;;;6.07;1.23;;;;;;;;;;5018995;28;20034;-77
2022/11/08 15:11:42;;;;;;;4.55;1.25;;;;;;;;;;5030797;28;20040;-76